Terminal Aerodrome Forecast
Issued by NWS

Home | Current Version | Previous Version | Text Only | Print | Product List | Glossary On
Versions: 1 2 3 4 5 6 7 8 9 10 11 12 13 14 15 16 17 18
000
FTAK31 PAJN 261152
TAFAPG
TAF
PAPG 261152Z 2612/2712 00000KT 3SM -RA BR SCT005 BKN012 OVC018
      TEMPO 2612/2616 1/2SM -RA FG VV002
     FM261800 VRB03KT 4SM -RA SCT010 OVC014
     FM270300 00000KT 6SM -RA BR OVC025
      AMD LTD TO CLD VIS AND WIND 2612/2615=

USA.gov is the U.S. government's official web portal to all federal, state and local government web resources and services.